createdAt,value
2022-10-14T00:01:27.022Z,40.47
2022-10-14T00:03:56.441Z,40.22
2022-10-14T00:06:30.079Z,38.55
2022-10-14T00:09:01.960Z,37.13
2022-10-14T00:11:33.022Z,43.53
2022-10-14T00:14:04.240Z,37.75
2022-10-14T00:16:36.294Z,40.50
2022-10-14T00:19:05.309Z,43.22
2022-10-14T00:21:36.091Z,45.45
2022-10-14T00:24:04.809Z,46.90
2022-10-14T00:26:35.153Z,50.50
2022-10-14T00:29:06.357Z,54.13
2022-10-14T00:31:35.817Z,53.78
2022-10-14T00:34:04.358Z,54.38
2022-10-14T00:36:35.805Z,56.90
2022-10-14T00:39:04.165Z,56.42
2022-10-14T00:41:36.212Z,57.65
2022-10-14T00:44:08.260Z,59.88
2022-10-14T00:46:39.064Z,62.05
2022-10-14T00:49:12.781Z,61.80
2022-10-14T00:51:46.700Z,58.60
2022-10-14T00:54:17.943Z,67.55
2022-10-14T00:56:49.132Z,69.85
2022-10-14T00:59:17.759Z,72.55
2022-10-14T01:01:46.039Z,67.20
2022-10-14T01:04:14.298Z,65.22
2022-10-14T01:06:54.629Z,70.97
2022-10-14T01:09:32.131Z,65.40
2022-10-14T01:12:28.065Z,68.95
2022-10-14T01:15:10.980Z,66.22
2022-10-14T01:17:52.934Z,68.68
2022-10-14T01:20:44.974Z,65.63
2022-10-14T01:24:02.635Z,69.50
2022-10-14T01:26:53.228Z,66.30
2022-10-14T01:30:10.706Z,73.20
2022-10-14T01:32:51.950Z,72.65
2022-10-14T01:35:32.311Z,65.38
2022-10-14T01:38:04.873Z,70.22
2022-10-14T01:40:37.588Z,69.05
2022-10-14T01:43:06.802Z,68.55
2022-10-14T01:45:38.418Z,71.47
2022-10-14T01:48:07.740Z,70.05
2022-10-14T01:50:38.614Z,75.78
2022-10-14T01:53:11.638Z,72.53
2022-10-14T01:55:45.614Z,71.70
2022-10-14T01:58:16.708Z,86.80
2022-10-14T02:00:47.894Z,82.35
2022-10-14T02:03:16.426Z,84.93
2022-10-14T02:05:50.273Z,86.25
2022-10-14T02:08:29.669Z,86.25
2022-10-14T02:11:08.778Z,88.72
2022-10-14T02:13:54.871Z,85.72
2022-10-14T02:16:37.987Z,80.97
2022-10-14T02:19:20.567Z,85.10
2022-10-14T02:21:55.274Z,83.90
2022-10-14T02:24:31.823Z,88.53
2022-10-14T02:27:07.175Z,92.10
2022-10-14T02:29:37.736Z,83.45
2022-10-14T02:32:08.711Z,81.60
2022-10-14T02:34:39.015Z,81.45
2022-10-14T02:37:11.464Z,81.47
2022-10-14T02:39:45.680Z,81.32
2022-10-14T02:42:14.034Z,77.75
2022-10-14T02:44:54.654Z,84.45
2022-10-14T02:47:25.736Z,87.18
2022-10-14T02:49:54.910Z,85.93
2022-10-14T02:52:25.314Z,77.90
2022-10-14T02:54:54.591Z,80.68
2022-10-14T02:57:23.828Z,87.93
2022-10-14T02:59:52.037Z,82.22
2022-10-14T03:02:20.444Z,79.15
2022-10-14T03:04:50.744Z,87.47
2022-10-14T03:07:19.037Z,85.63
2022-10-14T03:09:50.783Z,85.30
2022-10-14T03:12:19.171Z,86.13
2022-10-14T03:14:47.559Z,99.05
2022-10-14T03:17:18.195Z,92.00
2022-10-14T03:19:47.347Z,88.55
2022-10-14T03:22:18.224Z,94.03
2022-10-14T03:24:46.549Z,94.23
2022-10-14T03:27:27.935Z,101.40
2022-10-14T03:30:02.099Z,97.25
2022-10-14T03:32:30.447Z,91.28
2022-10-14T03:35:18.931Z,101.57
2022-10-14T03:37:53.194Z,97.50
2022-10-14T03:40:23.455Z,99.43
2022-10-14T03:42:52.627Z,105.72
2022-10-14T03:45:22.839Z,103.65
2022-10-14T03:47:51.027Z,103.20
2022-10-14T03:50:19.372Z,105.72
2022-10-14T03:52:55.563Z,108.72
2022-10-14T03:55:33.415Z,98.93
2022-10-14T03:58:02.587Z,102.00
2022-10-14T04:00:32.230Z,105.18
2022-10-14T04:03:15.019Z,98.30
2022-10-14T04:05:45.123Z,102.20
2022-10-14T04:08:19.404Z,106.85
2022-10-14T04:10:54.759Z,104.25
2022-10-14T04:13:24.352Z,111.45
2022-10-14T04:15:52.761Z,99.50
2022-10-14T04:18:25.406Z,101.57
2022-10-14T04:20:56.978Z,97.07
2022-10-14T04:23:27.958Z,99.00
2022-10-14T04:26:05.677Z,96.63
2022-10-14T04:28:35.655Z,93.53
2022-10-14T04:31:11.201Z,97.07
2022-10-14T04:36:26.739Z,100.57
2022-10-14T04:41:26.871Z,88.32
2022-10-14T04:43:57.466Z,91.35
2022-10-14T04:49:06.631Z,88.10
2022-10-14T04:51:40.342Z,83.28
2022-10-14T04:54:20.291Z,82.07
2022-10-14T04:56:56.598Z,74.50
2022-10-14T04:59:24.922Z,70.97
2022-10-14T05:02:22.624Z,77.80
2022-10-14T05:05:00.218Z,72.35
2022-10-14T05:07:31.709Z,61.20
2022-10-14T05:10:12.159Z,58.50
2022-10-14T05:12:43.497Z,51.67
2022-10-14T05:15:12.705Z,48.33
2022-10-14T05:17:54.235Z,42.20
2022-10-14T05:20:29.227Z,34.80
2022-10-14T05:22:59.324Z,29.90
2022-10-14T05:25:29.051Z,32.72
2022-10-14T05:27:57.720Z,29.35
2022-10-14T05:30:30.782Z,32.03
2022-10-14T05:33:02.337Z,34.72
2022-10-14T05:35:57.016Z,33.45
2022-10-14T05:38:20.262Z,40.13
2022-10-14T05:40:55.132Z,35.47
2022-10-14T05:43:30.994Z,38.53
2022-10-14T05:46:01.249Z,44.25
2022-10-14T05:48:32.896Z,43.60
2022-10-14T05:51:03.337Z,40.30
2022-10-14T05:53:33.779Z,41.55
2022-10-14T05:56:10.328Z,46.10
2022-10-14T05:58:40.753Z,42.40
2022-10-14T06:01:11.799Z,40.20
2022-10-14T06:03:42.475Z,41.80
2022-10-14T06:06:15.013Z,46.55
2022-10-14T06:08:44.085Z,42.55
2022-10-14T06:11:14.132Z,55.70
2022-10-14T06:13:42.654Z,58.03
2022-10-14T06:16:11.949Z,56.63
2022-10-14T06:18:40.504Z,66.72
2022-10-14T06:21:14.220Z,70.93
2022-10-14T06:23:42.401Z,75.60
2022-10-14T06:26:10.775Z,79.30
2022-10-14T06:28:40.582Z,75.55
2022-10-14T06:31:08.861Z,73.68
2022-10-14T06:33:37.368Z,79.50
2022-10-14T06:36:07.042Z,75.00
2022-10-14T06:38:35.403Z,76.40
2022-10-14T06:41:03.704Z,80.63
2022-10-14T06:43:31.992Z,77.03
2022-10-14T06:46:02.071Z,75.78
2022-10-14T06:48:30.608Z,72.57
2022-10-14T06:51:01.002Z,68.20
2022-10-14T06:53:29.882Z,68.97
2022-10-14T06:56:03.876Z,65.97
2022-10-14T06:58:33.148Z,61.45
2022-10-14T07:01:05.382Z,63.30
2022-10-14T07:03:38.691Z,59.58
2022-10-14T07:06:09.066Z,59.05
2022-10-14T07:08:37.519Z,55.05
2022-10-14T07:11:06.840Z,55.35
2022-10-14T07:13:35.472Z,54.92
2022-10-14T07:16:05.511Z,58.97
2022-10-14T07:18:33.924Z,56.50
2022-10-14T07:21:04.599Z,58.80
2022-10-14T07:26:02.035Z,59.28
2022-10-14T07:28:30.527Z,56.70
2022-10-14T07:31:06.563Z,52.90
2022-10-14T07:36:09.779Z,50.45
2022-10-14T07:38:38.866Z,57.13
2022-10-14T07:41:16.831Z,54.72
2022-10-14T07:43:45.973Z,54.67
2022-10-14T07:46:18.686Z,65.55
2022-10-14T07:48:56.761Z,60.53
2022-10-14T07:51:26.039Z,57.25
2022-10-14T07:53:55.009Z,49.45
2022-10-14T07:56:23.527Z,50.95
2022-10-14T07:58:52.534Z,50.17
2022-10-14T08:01:24.161Z,49.28
2022-10-14T08:03:53.365Z,48.45
2022-10-14T08:06:22.305Z,43.40
2022-10-14T08:08:50.739Z,38.75
2022-10-14T08:11:22.571Z,36.67
2022-10-14T08:13:51.660Z,35.65
2022-10-14T08:16:24.160Z,36.35
2022-10-14T08:18:53.321Z,30.98
2022-10-14T08:21:22.189Z,33.63
2022-10-14T08:23:50.497Z,31.70
2022-10-14T08:26:23.255Z,33.83
2022-10-14T08:28:52.338Z,25.50
2022-10-14T08:31:22.998Z,25.15
2022-10-14T08:36:21.233Z,22.23
2022-10-14T08:38:51.822Z,21.35
2022-10-14T08:44:12.378Z,18.90
2022-10-14T08:46:51.092Z,21.00
2022-10-14T08:49:28.032Z,19.50
2022-10-14T08:52:02.231Z,22.45
2022-10-14T08:54:38.076Z,23.45
2022-10-14T08:57:07.565Z,25.42
2022-10-14T08:59:42.027Z,25.60
2022-10-14T09:02:25.662Z,26.70
2022-10-14T09:04:53.909Z,26.08
2022-10-14T09:07:22.505Z,23.27
2022-10-14T09:09:55.666Z,22.77
2022-10-14T09:12:29.657Z,24.95
2022-10-14T09:15:13.061Z,24.20
2022-10-14T09:17:49.499Z,21.30
2022-10-14T09:20:23.495Z,23.15
2022-10-14T09:23:07.284Z,22.90
2022-10-14T09:25:37.455Z,21.05
2022-10-14T09:28:06.043Z,22.00
2022-10-14T09:30:40.542Z,19.70
2022-10-14T09:33:18.370Z,22.58
2022-10-14T09:35:46.805Z,19.55
2022-10-14T09:38:15.456Z,20.98
2022-10-14T09:40:46.411Z,21.27
2022-10-14T09:43:21.770Z,19.65
2022-10-14T09:45:54.938Z,19.05
2022-10-14T09:48:34.525Z,18.35
2022-10-14T09:51:06.620Z,17.70
2022-10-14T09:53:41.182Z,18.63
2022-10-14T09:56:11.253Z,19.83
2022-10-14T09:58:45.672Z,20.15
2022-10-14T10:01:19.014Z,20.27
2022-10-14T10:03:51.434Z,25.30
2022-10-14T10:06:25.621Z,20.95
2022-10-14T10:09:00.130Z,19.77
2022-10-14T10:11:31.227Z,21.80
2022-10-14T10:14:16.392Z,21.30
2022-10-14T10:16:46.049Z,20.80
2022-10-14T10:19:31.163Z,21.93
2022-10-14T10:22:21.842Z,19.48
2022-10-14T10:24:52.432Z,18.63
2022-10-14T10:27:25.641Z,18.30
2022-10-14T10:29:55.816Z,18.25
2022-10-14T10:32:30.231Z,16.98
2022-10-14T10:35:15.974Z,17.42
2022-10-14T10:38:00.537Z,18.42
2022-10-14T10:40:33.693Z,22.95
2022-10-14T10:43:19.838Z,22.63
2022-10-14T10:46:05.454Z,21.02
2022-10-14T10:48:44.293Z,22.20
2022-10-14T10:51:18.281Z,22.02
2022-10-14T10:54:07.914Z,21.80
2022-10-14T10:56:43.917Z,25.55
2022-10-14T10:59:37.441Z,22.23
2022-10-14T11:02:56.176Z,22.40
2022-10-14T11:05:44.706Z,24.10
2022-10-14T11:09:05.231Z,21.70
2022-10-14T11:11:54.863Z,21.42
2022-10-14T11:15:03.317Z,22.00
2022-10-14T11:20:27.363Z,20.27
2022-10-14T11:23:34.781Z,21.48
2022-10-14T11:26:15.717Z,19.40
2022-10-14T11:28:53.814Z,18.83
2022-10-14T11:31:35.157Z,16.60
2022-10-14T11:34:29.324Z,15.80
2022-10-14T11:37:08.574Z,15.15
2022-10-14T11:39:50.395Z,13.98
2022-10-14T11:42:34.033Z,15.32
2022-10-14T11:45:49.558Z,12.40
2022-10-14T11:48:31.294Z,15.05
2022-10-14T11:51:08.675Z,14.25
2022-10-14T11:53:48.870Z,13.38
2022-10-14T11:56:32.289Z,14.80
2022-10-14T11:59:10.558Z,12.25
2022-10-14T12:01:45.020Z,12.88
2022-10-14T12:04:22.281Z,12.30
2022-10-14T12:06:58.511Z,12.10
2022-10-14T12:12:14.922Z,10.18
2022-10-14T12:14:48.337Z,12.70
2022-10-14T12:17:24.263Z,10.30
2022-10-14T12:19:53.291Z,11.15
2022-10-14T12:22:26.074Z,9.43
2022-10-14T12:24:56.348Z,7.93
2022-10-14T12:27:28.835Z,7.47
2022-10-14T12:29:58.918Z,8.40
2022-10-14T12:32:30.047Z,6.38
2022-10-14T12:35:02.265Z,5.28
2022-10-14T12:37:52.690Z,5.90
2022-10-14T12:40:27.999Z,5.68
2022-10-14T12:43:21.570Z,7.82
2022-10-14T12:46:04.267Z,5.70
2022-10-14T12:48:35.953Z,8.02
2022-10-14T12:51:15.464Z,7.05
2022-10-14T12:53:54.169Z,7.13
2022-10-14T12:56:36.639Z,6.72
2022-10-14T12:59:09.229Z,5.30
2022-10-14T13:01:39.434Z,6.55
2022-10-14T13:04:20.017Z,6.38
2022-10-14T13:07:47.193Z,7.68
2022-10-14T13:10:48.528Z,8.63
2022-10-14T13:13:52.571Z,7.03
2022-10-14T13:17:01.045Z,8.27
2022-10-14T13:19:47.946Z,6.80
2022-10-14T13:22:44.014Z,9.05
2022-10-14T13:25:18.272Z,6.60
2022-10-14T13:28:14.360Z,4.82
2022-10-14T13:30:56.790Z,5.65
2022-10-14T13:33:35.981Z,5.28
2022-10-14T13:36:14.850Z,5.25
2022-10-14T13:38:47.257Z,6.28
2022-10-14T13:41:28.295Z,5.88
2022-10-14T13:44:01.215Z,5.18
2022-10-14T13:46:35.283Z,4.35
2022-10-14T13:51:53.454Z,7.60
2022-10-14T13:54:24.067Z,7.63
2022-10-14T14:02:44.086Z,7.50
2022-10-14T14:05:19.962Z,5.00
2022-10-14T14:08:30.056Z,6.20
2022-10-14T14:13:29.550Z,5.03
2022-10-14T14:15:58.479Z,4.35
2022-10-14T14:18:49.462Z,4.90
2022-10-14T14:21:28.465Z,6.28
2022-10-14T14:23:59.170Z,7.07
2022-10-14T14:31:48.052Z,6.20
2022-10-14T14:34:20.467Z,6.43
2022-10-14T14:36:55.535Z,7.05
2022-10-14T14:39:32.233Z,5.47
2022-10-14T14:42:02.003Z,6.50
2022-10-14T14:44:34.529Z,7.53
2022-10-14T14:47:04.959Z,5.57
2022-10-14T14:49:38.085Z,6.03
2022-10-14T14:52:08.510Z,5.72
2022-10-14T14:54:46.102Z,5.50
2022-10-14T14:57:19.607Z,5.18
2022-10-14T15:00:00.259Z,6.13
2022-10-14T15:02:29.863Z,5.80
2022-10-14T15:05:02.952Z,5.25
2022-10-14T15:07:33.075Z,5.70
2022-10-14T15:10:03.517Z,4.30
2022-10-14T15:12:34.293Z,5.40
2022-10-14T15:17:34.992Z,5.60
2022-10-14T15:20:29.684Z,7.43
2022-10-14T15:22:59.462Z,10.85
2022-10-14T15:25:32.212Z,12.95
2022-10-14T15:28:01.742Z,9.27
2022-10-14T15:30:34.944Z,13.35
2022-10-14T15:33:14.831Z,8.50
2022-10-14T15:35:44.117Z,11.20
2022-10-14T15:38:19.092Z,11.50
2022-10-14T15:40:49.198Z,13.02
2022-10-14T15:43:24.251Z,9.80
2022-10-14T15:46:13.446Z,8.35
2022-10-14T15:48:47.807Z,7.07
2022-10-14T15:51:20.739Z,10.07
2022-10-14T15:56:20.907Z,7.63
2022-10-14T15:58:49.525Z,6.18
2022-10-14T16:01:21.562Z,9.30
2022-10-14T16:03:51.877Z,8.02
2022-10-14T16:06:22.640Z,6.10
2022-10-14T16:08:52.912Z,5.32
2022-10-14T16:11:25.137Z,5.45
2022-10-14T16:13:53.416Z,7.22
2022-10-14T16:16:28.151Z,7.75
2022-10-14T16:18:56.430Z,7.55
2022-10-14T16:21:24.648Z,8.32
2022-10-14T16:23:54.530Z,7.22
2022-10-14T16:26:22.899Z,6.65
2022-10-14T16:28:51.163Z,11.00
2022-10-14T16:31:21.298Z,9.77
2022-10-14T16:33:54.676Z,8.40
2022-10-14T16:36:24.958Z,8.30
2022-10-14T16:38:54.853Z,7.38
2022-10-14T16:41:23.177Z,7.72
2022-10-14T16:43:51.585Z,7.90
2022-10-14T16:46:19.968Z,8.80
2022-10-14T16:48:49.629Z,8.93
2022-10-14T16:51:17.964Z,7.40
2022-10-14T16:53:48.809Z,8.85
2022-10-14T16:56:38.333Z,9.07
2022-10-14T16:59:08.167Z,8.07
2022-10-14T17:01:36.506Z,8.73
2022-10-14T17:04:07.803Z,12.25
2022-10-14T17:06:36.077Z,9.10
2022-10-14T17:09:04.723Z,9.95
2022-10-14T17:11:35.003Z,9.85
2022-10-14T17:14:03.767Z,12.63
2022-10-14T17:16:32.011Z,10.27
2022-10-14T17:19:00.839Z,17.35
2022-10-14T17:21:29.855Z,11.18
2022-10-14T17:24:02.577Z,11.73
2022-10-14T17:26:33.765Z,11.77
2022-10-14T17:29:02.817Z,14.23
2022-10-14T17:31:31.978Z,13.07
2022-10-14T17:34:00.864Z,12.95
2022-10-14T17:36:30.847Z,12.30
2022-10-14T17:39:00.271Z,11.80
2022-10-14T17:41:30.772Z,13.93
2022-10-14T17:44:02.212Z,11.48
2022-10-14T17:46:32.172Z,12.82
2022-10-14T17:49:03.800Z,15.52
2022-10-14T17:51:33.493Z,14.30
2022-10-14T17:54:04.344Z,14.93
2022-10-14T17:56:35.459Z,14.85
2022-10-14T17:59:07.085Z,14.95
2022-10-14T18:01:43.860Z,15.55
2022-10-14T18:04:24.140Z,18.98
2022-10-14T18:06:52.590Z,16.63
2022-10-14T18:09:21.159Z,17.75
2022-10-14T18:14:40.982Z,20.20
2022-10-14T18:19:40.779Z,17.50
2022-10-14T18:22:11.121Z,18.15
2022-10-14T18:24:39.696Z,20.52
2022-10-14T18:27:08.079Z,18.83
2022-10-14T18:29:36.420Z,18.08
2022-10-14T18:32:07.167Z,17.83
2022-10-14T18:34:35.597Z,20.00
2022-10-14T18:37:03.814Z,18.48
2022-10-14T18:39:32.194Z,19.48
2022-10-14T18:42:00.383Z,18.38
2022-10-14T18:44:28.637Z,20.05
2022-10-14T18:46:56.897Z,20.33
2022-10-14T18:49:26.614Z,24.27
2022-10-14T18:51:55.353Z,22.93
2022-10-14T18:54:25.175Z,23.20
2022-10-14T18:56:54.828Z,21.48
2022-10-14T18:59:24.492Z,22.83
2022-10-14T19:01:53.856Z,22.92
2022-10-14T19:04:26.905Z,22.23
2022-10-14T19:06:55.214Z,21.67
2022-10-14T19:09:28.971Z,23.65
2022-10-14T19:11:58.889Z,25.15
2022-10-14T19:14:28.644Z,21.00
2022-10-14T19:16:57.092Z,24.83
2022-10-14T19:19:26.869Z,28.33
2022-10-14T19:21:56.407Z,24.48
2022-10-14T19:24:24.838Z,25.83
2022-10-14T19:26:54.148Z,30.17
2022-10-14T19:29:22.588Z,26.67
2022-10-14T19:31:54.319Z,26.10
2022-10-14T19:34:26.740Z,28.50
2022-10-14T19:36:59.995Z,31.95
2022-10-14T19:39:28.262Z,27.42
2022-10-14T19:41:56.499Z,26.50
2022-10-14T19:44:24.843Z,28.88
2022-10-14T19:46:53.281Z,29.40
2022-10-14T19:49:21.558Z,30.42
2022-10-14T19:51:49.859Z,30.38
2022-10-14T19:54:19.815Z,31.00
2022-10-14T19:56:48.092Z,30.58
2022-10-14T19:59:16.316Z,30.88
2022-10-14T20:01:44.667Z,27.85
2022-10-14T20:04:13.254Z,30.10
2022-10-14T20:06:42.893Z,29.70
2022-10-14T20:09:14.679Z,28.47
2022-10-14T20:11:44.465Z,28.27
2022-10-14T20:14:14.452Z,25.97
2022-10-14T20:16:42.767Z,27.02
2022-10-14T20:19:11.059Z,28.52
2022-10-14T20:21:39.337Z,27.02
2022-10-14T20:24:07.982Z,25.70
2022-10-14T20:26:37.561Z,24.17
2022-10-14T20:29:07.751Z,27.95
2022-10-14T20:31:36.043Z,26.90
2022-10-14T20:34:08.656Z,23.25
2022-10-14T20:36:39.654Z,25.50
2022-10-14T20:39:07.865Z,24.48
2022-10-14T20:41:36.241Z,25.45
2022-10-14T20:44:05.948Z,23.33
2022-10-14T20:46:34.286Z,21.93
2022-10-14T20:49:02.548Z,26.38
2022-10-14T20:51:30.879Z,21.98
2022-10-14T20:54:03.985Z,24.20
2022-10-14T20:56:35.424Z,23.00
2022-10-14T20:59:07.830Z,23.25
2022-10-14T21:01:38.160Z,21.50
2022-10-14T21:04:08.709Z,22.90
2022-10-14T21:06:38.769Z,21.77
2022-10-14T21:09:07.408Z,24.52
2022-10-14T21:11:35.778Z,25.15
2022-10-14T21:14:05.923Z,22.83
2022-10-14T21:16:36.846Z,24.38
2022-10-14T21:19:07.581Z,22.10
2022-10-14T21:24:08.184Z,23.80
2022-10-14T21:26:36.586Z,22.27
2022-10-14T21:29:06.914Z,25.23
2022-10-14T21:31:35.234Z,20.33
2022-10-14T21:34:06.588Z,20.83
2022-10-14T21:36:36.116Z,21.73
2022-10-14T21:39:07.648Z,25.05
2022-10-14T21:41:36.123Z,28.45
2022-10-14T21:44:06.997Z,24.98
2022-10-14T21:46:36.342Z,26.17
2022-10-14T21:49:05.056Z,28.98
2022-10-14T21:51:34.205Z,26.75
2022-10-14T21:54:02.530Z,29.95
2022-10-14T21:56:31.129Z,26.63
2022-10-14T21:58:59.925Z,29.65
2022-10-14T22:01:30.809Z,26.02
2022-10-14T22:04:01.396Z,32.35
2022-10-14T22:06:29.872Z,31.10
2022-10-14T22:09:01.521Z,31.98
2022-10-14T22:11:32.989Z,32.80
2022-10-14T22:14:05.779Z,32.45
2022-10-14T22:16:36.696Z,32.88
2022-10-14T22:19:07.254Z,34.15
2022-10-14T22:21:37.877Z,32.80
2022-10-14T22:26:42.085Z,30.40
2022-10-14T22:29:14.310Z,34.03
2022-10-14T22:31:44.690Z,35.45
2022-10-14T22:34:16.270Z,35.83
2022-10-14T22:36:44.806Z,37.40
2022-10-14T22:39:15.604Z,35.40
2022-10-14T22:41:44.077Z,35.38
2022-10-14T22:44:12.676Z,37.08
2022-10-14T22:46:42.945Z,34.75
2022-10-14T22:49:11.240Z,36.88
2022-10-14T22:51:41.345Z,35.97
2022-10-14T22:54:10.681Z,43.95
2022-10-14T22:56:39.702Z,31.60
2022-10-14T22:59:10.865Z,34.05
2022-10-14T23:01:40.077Z,35.50
2022-10-14T23:04:10.952Z,34.13
2022-10-14T23:06:43.643Z,32.58
2022-10-14T23:09:11.980Z,33.28
2022-10-14T23:11:40.498Z,38.40
2022-10-14T23:14:08.969Z,33.92
2022-10-14T23:16:37.654Z,31.30
2022-10-14T23:19:06.070Z,30.85
2022-10-14T23:21:38.224Z,32.58
2022-10-14T23:24:10.964Z,31.27
2022-10-14T23:26:39.568Z,36.15
2022-10-14T23:29:11.410Z,34.22
2022-10-14T23:31:41.199Z,33.15
2022-10-14T23:34:13.244Z,38.35
2022-10-14T23:36:43.524Z,35.78
2022-10-14T23:39:12.078Z,34.58
2022-10-14T23:41:40.564Z,34.83
2022-10-14T23:44:08.921Z,33.65
2022-10-14T23:46:37.142Z,32.47
2022-10-14T23:49:24.983Z,32.45
2022-10-14T23:51:55.275Z,38.85
2022-10-14T23:54:23.762Z,33.53
2022-10-14T23:56:52.196Z,32.90
2022-10-14T23:59:20.373Z,34.58
